createdAt,value
2022-11-24T00:00:12.276Z,6.35
2022-11-24T00:02:39.055Z,6.35
2022-11-24T00:05:06.343Z,6.24
2022-11-24T00:07:32.932Z,6.40
2022-11-24T00:09:59.578Z,6.43
2022-11-24T00:12:26.143Z,6.12
2022-11-24T00:14:52.699Z,6.37
2022-11-24T00:17:19.242Z,6.35
2022-11-24T00:19:45.881Z,6.37
2022-11-24T00:22:12.439Z,6.47
2022-11-24T00:24:39.240Z,6.47
2022-11-24T00:27:06.121Z,6.54
2022-11-24T00:29:32.699Z,6.40
2022-11-24T00:31:59.279Z,6.44
2022-11-24T00:34:26.938Z,6.46
2022-11-24T00:36:53.447Z,6.20
2022-11-24T00:39:20.020Z,6.30
2022-11-24T00:41:46.599Z,6.29
2022-11-24T00:44:13.363Z,6.33
2022-11-24T00:46:40.108Z,6.25
2022-11-24T00:49:06.885Z,6.27
2022-11-24T00:51:33.534Z,6.35
2022-11-24T00:54:01.188Z,6.26
2022-11-24T00:56:29.177Z,6.28
2022-11-24T00:58:56.782Z,6.21
2022-11-24T01:01:26.744Z,6.28
2022-11-24T01:03:57.327Z,6.36
2022-11-24T01:06:25.889Z,6.41
2022-11-24T01:08:52.732Z,6.24
2022-11-24T01:11:28.742Z,6.24
2022-11-24T01:13:57.848Z,6.21
2022-11-24T01:16:26.013Z,6.22
2022-11-24T01:18:52.707Z,6.29
2022-11-24T01:21:20.267Z,6.38
2022-11-24T01:23:47.093Z,6.35
2022-11-24T01:26:20.287Z,6.44
2022-11-24T01:28:47.831Z,6.45
2022-11-24T01:31:15.508Z,6.47
2022-11-24T01:33:42.259Z,6.42
2022-11-24T01:36:08.861Z,6.55
2022-11-24T01:38:35.428Z,6.49
2022-11-24T01:41:04.923Z,6.53
2022-11-24T01:43:32.080Z,6.47
2022-11-24T01:46:04.903Z,6.40
2022-11-24T01:48:38.487Z,6.41
2022-11-24T01:51:16.540Z,6.25
2022-11-24T01:53:49.090Z,6.32
2022-11-24T01:56:15.811Z,6.38
2022-11-24T01:58:45.422Z,6.33
2022-11-24T02:01:12.236Z,6.48
2022-11-24T02:03:44.722Z,6.46
2022-11-24T02:06:14.012Z,6.38
2022-11-24T02:09:00.988Z,6.43
2022-11-24T02:11:33.329Z,6.46
2022-11-24T02:14:00.729Z,6.52
2022-11-24T02:16:27.629Z,6.43
2022-11-24T02:18:54.239Z,6.31
2022-11-24T02:21:20.853Z,6.48
2022-11-24T02:23:59.468Z,6.48
2022-11-24T02:26:39.623Z,6.42
2022-11-24T02:29:06.252Z,6.66
2022-11-24T02:31:33.712Z,6.66
2022-11-24T02:34:00.352Z,6.82
2022-11-24T02:36:26.990Z,6.63
2022-11-24T02:38:53.660Z,6.34
2022-11-24T02:41:23.298Z,6.72
2022-11-24T02:43:54.871Z,6.68
2022-11-24T02:46:21.368Z,6.68
2022-11-24T02:48:48.239Z,6.63
2022-11-24T02:51:14.806Z,6.75
2022-11-24T02:53:41.460Z,6.77
2022-11-24T02:56:08.542Z,6.86
2022-11-24T02:58:35.173Z,6.82
2022-11-24T03:01:02.798Z,6.80
2022-11-24T03:03:29.423Z,6.60
2022-11-24T03:05:56.059Z,6.65
2022-11-24T03:08:22.663Z,6.77
2022-11-24T03:10:49.408Z,6.76
2022-11-24T03:13:16.103Z,6.72
2022-11-24T03:15:42.748Z,6.37
2022-11-24T03:18:09.431Z,6.56
2022-11-24T03:20:36.198Z,6.61
2022-11-24T03:23:03.002Z,6.54
2022-11-24T03:25:29.589Z,6.44
2022-11-24T03:27:58.172Z,6.38
2022-11-24T03:30:24.986Z,6.27
2022-11-24T03:32:52.923Z,6.24
2022-11-24T03:35:23.140Z,6.30
2022-11-24T03:37:49.915Z,6.46
2022-11-24T03:40:17.902Z,6.41
2022-11-24T03:42:44.440Z,6.31
2022-11-24T03:45:38.155Z,6.48
2022-11-24T03:47:57.639Z,6.66
2022-11-24T03:50:24.283Z,6.67
2022-11-24T03:52:50.799Z,6.79
2022-11-24T03:55:17.359Z,6.76
2022-11-24T03:57:43.870Z,6.81
2022-11-24T04:00:11.823Z,6.72
2022-11-24T04:02:38.520Z,6.34
2022-11-24T04:05:05.912Z,6.32
2022-11-24T04:07:32.538Z,6.29
2022-11-24T04:09:59.396Z,6.20
2022-11-24T04:12:44.180Z,6.22
2022-11-24T04:15:17.166Z,6.19
2022-11-24T04:17:45.128Z,6.01
2022-11-24T04:20:12.710Z,6.20
2022-11-24T04:22:39.739Z,6.08
2022-11-24T04:25:07.404Z,6.30
2022-11-24T04:27:35.474Z,6.33
2022-11-24T04:30:02.734Z,6.26
2022-11-24T04:32:29.283Z,6.18
2022-11-24T04:34:55.862Z,6.18
2022-11-24T04:37:22.616Z,6.32
2022-11-24T04:39:49.169Z,6.60
2022-11-24T04:42:15.735Z,6.57
2022-11-24T04:44:42.331Z,6.39
2022-11-24T04:47:15.612Z,6.46
2022-11-24T04:49:42.216Z,6.25
2022-11-24T04:52:08.761Z,6.26
2022-11-24T04:54:35.759Z,6.27
2022-11-24T04:57:02.469Z,6.26
2022-11-24T04:59:29.172Z,6.24
2022-11-24T05:01:55.785Z,6.36
2022-11-24T05:04:22.501Z,6.42
2022-11-24T05:06:49.139Z,6.31
2022-11-24T05:09:17.072Z,6.39
2022-11-24T05:11:43.902Z,6.38
2022-11-24T05:14:10.531Z,6.37
2022-11-24T05:16:37.796Z,6.23
2022-11-24T05:19:04.535Z,6.23
2022-11-24T05:21:31.073Z,6.46
2022-11-24T05:23:57.899Z,6.41
2022-11-24T05:26:24.453Z,6.51
2022-11-24T05:28:51.008Z,6.59
2022-11-24T05:31:17.609Z,6.77
2022-11-24T05:33:44.189Z,6.82
2022-11-24T05:36:33.473Z,7.05
2022-11-24T05:39:00.454Z,7.09
2022-11-24T05:41:27.027Z,7.02
2022-11-24T05:43:53.675Z,6.99
2022-11-24T05:46:20.269Z,6.99
2022-11-24T05:48:48.286Z,6.76
2022-11-24T05:51:14.846Z,6.81
2022-11-24T05:53:41.477Z,6.83
2022-11-24T05:56:08.326Z,6.95
2022-11-24T05:58:34.886Z,7.02
2022-11-24T06:01:05.040Z,6.96
2022-11-24T06:03:31.584Z,6.93
2022-11-24T06:05:58.110Z,6.93
2022-11-24T06:08:29.658Z,6.93
2022-11-24T06:11:20.122Z,6.85
2022-11-24T06:13:48.713Z,6.77
2022-11-24T06:16:16.013Z,6.66
2022-11-24T06:18:42.751Z,6.69
2022-11-24T06:21:11.168Z,6.50
2022-11-24T06:23:38.618Z,6.43
2022-11-24T06:26:05.983Z,6.33
2022-11-24T06:28:32.694Z,6.23
2022-11-24T06:31:04.009Z,6.37
2022-11-24T06:33:38.189Z,6.34
2022-11-24T06:36:07.758Z,6.34
2022-11-24T06:38:35.721Z,6.36
2022-11-24T06:41:07.947Z,6.49
2022-11-24T06:43:34.990Z,6.48
2022-11-24T06:46:02.509Z,6.53
2022-11-24T06:48:30.022Z,6.56
2022-11-24T06:51:05.327Z,6.48
2022-11-24T06:53:33.335Z,6.52
2022-11-24T06:56:01.913Z,6.49
2022-11-24T06:58:28.588Z,6.51
2022-11-24T07:00:55.174Z,6.56
2022-11-24T07:03:22.617Z,6.45
2022-11-24T07:05:49.402Z,6.38
2022-11-24T07:08:19.029Z,6.37
2022-11-24T07:10:49.886Z,6.37
2022-11-24T07:13:16.509Z,6.33
2022-11-24T07:15:43.113Z,6.39
2022-11-24T07:18:09.719Z,6.35
2022-11-24T07:20:39.365Z,6.41
2022-11-24T07:23:06.779Z,6.43
2022-11-24T07:25:33.702Z,6.45
2022-11-24T07:28:03.406Z,6.49
2022-11-24T07:30:29.948Z,6.48
2022-11-24T07:33:03.235Z,6.48
2022-11-24T07:35:30.794Z,6.56
2022-11-24T07:37:58.444Z,6.51
2022-11-24T07:40:26.750Z,6.63
2022-11-24T07:42:54.238Z,6.78
2022-11-24T07:45:21.385Z,6.69
2022-11-24T07:47:48.018Z,6.57
2022-11-24T07:50:14.887Z,6.66
2022-11-24T07:52:41.441Z,6.71
2022-11-24T07:55:08.781Z,6.80
2022-11-24T07:57:35.459Z,6.79
2022-11-24T08:00:02.311Z,6.88
2022-11-24T08:02:31.446Z,6.76
2022-11-24T08:04:57.987Z,6.74
2022-11-24T08:07:24.779Z,6.52
2022-11-24T08:09:52.140Z,6.72
2022-11-24T08:12:21.612Z,6.81
2022-11-24T08:14:50.136Z,6.79
2022-11-24T08:17:17.664Z,6.66
2022-11-24T08:19:44.637Z,6.71
2022-11-24T08:22:11.283Z,6.68
2022-11-24T08:24:38.338Z,6.82
2022-11-24T08:27:05.243Z,6.72
2022-11-24T08:29:32.039Z,6.60
2022-11-24T08:31:58.626Z,6.63
2022-11-24T08:34:26.132Z,6.71
2022-11-24T08:36:52.671Z,6.88
2022-11-24T08:39:20.380Z,6.83
2022-11-24T08:41:47.051Z,6.88
2022-11-24T08:44:18.249Z,6.84
2022-11-24T08:46:45.276Z,6.91
2022-11-24T08:49:13.622Z,6.91
2022-11-24T08:51:40.502Z,6.75
2022-11-24T08:54:08.461Z,6.88
2022-11-24T08:56:35.015Z,6.92
2022-11-24T08:59:02.165Z,7.00
2022-11-24T09:01:29.013Z,7.03
2022-11-24T09:03:58.888Z,7.09
2022-11-24T09:06:30.301Z,7.00
2022-11-24T09:08:58.058Z,7.21
2022-11-24T09:11:25.970Z,7.05
2022-11-24T09:13:53.380Z,7.09
2022-11-24T09:16:22.613Z,7.11
2022-11-24T09:19:04.850Z,7.10
2022-11-24T09:21:34.131Z,7.03
2022-11-24T09:24:00.915Z,6.98
2022-11-24T09:26:30.015Z,7.01
2022-11-24T09:28:58.535Z,7.12
2022-11-24T09:31:28.245Z,7.02
2022-11-24T09:33:55.133Z,6.92
2022-11-24T09:36:22.077Z,6.88
2022-11-24T09:38:48.909Z,6.83
2022-11-24T09:41:18.389Z,7.09
2022-11-24T09:43:57.038Z,7.26
2022-11-24T09:46:32.050Z,7.06
2022-11-24T09:48:58.786Z,6.90
2022-11-24T09:51:29.339Z,6.82
2022-11-24T09:54:09.200Z,6.81
2022-11-24T09:56:40.602Z,6.83
2022-11-24T09:59:23.355Z,6.76
2022-11-24T10:01:51.384Z,6.62
2022-11-24T10:04:20.905Z,6.79
2022-11-24T10:07:06.470Z,6.95
2022-11-24T10:09:57.021Z,6.86
2022-11-24T10:12:51.616Z,6.75
2022-11-24T10:15:45.654Z,6.83
2022-11-24T10:18:42.977Z,7.07
2022-11-24T10:21:18.503Z,7.18
2022-11-24T10:24:13.482Z,7.47
2022-11-24T10:26:46.885Z,7.61
2022-11-24T10:29:21.384Z,7.55
2022-11-24T10:31:53.687Z,7.64
2022-11-24T10:34:34.459Z,7.72
2022-11-24T10:37:11.495Z,7.93
2022-11-24T10:39:59.680Z,7.94
2022-11-24T10:42:29.879Z,7.75
2022-11-24T10:45:09.489Z,8.05
2022-11-24T10:47:36.061Z,8.06
2022-11-24T10:50:12.718Z,8.14
2022-11-24T10:52:42.778Z,8.04
2022-11-24T10:55:09.889Z,7.93
2022-11-24T10:57:39.207Z,7.89
2022-11-24T11:00:21.018Z,7.89
2022-11-24T11:02:49.047Z,7.71
2022-11-24T11:05:33.642Z,7.72
2022-11-24T11:08:30.508Z,7.76
2022-11-24T11:11:31.351Z,7.89
2022-11-24T11:14:04.759Z,7.97
2022-11-24T11:16:39.471Z,8.13
2022-11-24T11:19:51.426Z,8.13
2022-11-24T11:22:31.890Z,8.07
2022-11-24T11:25:12.300Z,8.07
2022-11-24T11:27:40.587Z,8.27
2022-11-24T11:36:11.190Z,8.07
2022-11-24T11:38:39.618Z,8.12
2022-11-24T11:41:11.629Z,7.98
2022-11-24T11:43:40.953Z,8.08
2022-11-24T11:46:13.297Z,8.12
2022-11-24T11:48:44.824Z,8.16
2022-11-24T11:51:41.367Z,8.36
2022-11-24T11:54:21.259Z,8.43
2022-11-24T11:56:55.031Z,8.33
2022-11-24T11:59:28.219Z,8.40
2022-11-24T12:02:38.545Z,8.55
2022-11-24T12:05:41.521Z,8.27
2022-11-24T12:08:21.586Z,8.25
2022-11-24T12:10:53.085Z,8.36
2022-11-24T12:13:38.130Z,8.53
2022-11-24T12:16:27.791Z,8.54
2022-11-24T12:19:32.961Z,8.80
2022-11-24T12:22:14.678Z,8.84
2022-11-24T12:24:53.261Z,8.74
2022-11-24T12:27:50.835Z,8.75
2022-11-24T12:30:18.750Z,8.81
2022-11-24T12:33:05.539Z,8.91
2022-11-24T12:36:03.492Z,9.24
2022-11-24T12:38:54.633Z,9.25
2022-11-24T12:41:45.137Z,9.23
2022-11-24T12:44:30.747Z,9.10
2022-11-24T12:47:10.025Z,9.00
2022-11-24T12:50:03.819Z,9.28
2022-11-24T12:52:38.659Z,9.10
2022-11-24T12:55:12.627Z,8.89
2022-11-24T12:58:10.621Z,9.12
2022-11-24T13:00:48.248Z,9.15
2022-11-24T13:03:30.559Z,9.40
2022-11-24T13:06:02.828Z,9.24
2022-11-24T13:08:30.692Z,9.11
2022-11-24T13:11:23.079Z,8.99
2022-11-24T13:14:13.960Z,8.94
2022-11-24T13:17:13.440Z,9.06
2022-11-24T13:19:37.637Z,9.18
2022-11-24T13:22:07.238Z,9.11
2022-11-24T13:24:39.690Z,9.06
2022-11-24T13:27:15.550Z,8.97
2022-11-24T13:29:46.894Z,9.00
2022-11-24T13:32:14.491Z,8.88
2022-11-24T13:34:41.339Z,8.99
2022-11-24T13:37:33.877Z,8.80
2022-11-24T13:40:31.232Z,8.76
2022-11-24T13:42:57.814Z,8.74
2022-11-24T13:45:39.875Z,8.82
2022-11-24T13:48:18.990Z,8.81
2022-11-24T13:50:54.671Z,8.83
2022-11-24T13:53:38.579Z,8.87
2022-11-24T13:56:08.060Z,8.85
2022-11-24T13:58:42.831Z,9.01
2022-11-24T14:01:36.107Z,9.14
2022-11-24T14:04:35.269Z,9.13
2022-11-24T14:07:09.554Z,9.13
2022-11-24T14:09:43.106Z,9.15
2022-11-24T14:12:17.748Z,9.26
2022-11-24T14:14:46.551Z,9.46
2022-11-24T14:17:13.078Z,9.55
2022-11-24T14:19:40.497Z,9.64
2022-11-24T14:22:19.297Z,9.57
2022-11-24T14:24:57.726Z,9.70
2022-11-24T14:27:37.212Z,9.92
2022-11-24T14:30:17.559Z,10.00
2022-11-24T14:33:00.530Z,10.34
2022-11-24T14:35:35.853Z,10.20
2022-11-24T14:38:05.247Z,10.25
2022-11-24T14:40:39.280Z,10.38
2022-11-24T14:43:18.438Z,10.47
2022-11-24T14:45:56.016Z,10.27
2022-11-24T14:48:36.862Z,10.35
2022-11-24T14:51:16.053Z,10.42
2022-11-24T14:53:48.938Z,10.23
2022-11-24T14:56:26.817Z,10.31
2022-11-24T14:58:55.083Z,10.48
2022-11-24T15:01:27.563Z,10.44
2022-11-24T15:04:22.069Z,10.62
2022-11-24T15:07:27.017Z,10.42
2022-11-24T15:09:58.053Z,10.29
2022-11-24T15:12:33.823Z,10.09
2022-11-24T15:15:06.344Z,9.87
2022-11-24T15:17:33.057Z,9.85
2022-11-24T15:20:16.999Z,9.59
2022-11-24T15:22:46.612Z,9.59
2022-11-24T15:25:33.796Z,9.77
2022-11-24T15:28:01.115Z,9.67
2022-11-24T15:30:35.715Z,9.74
2022-11-24T15:33:02.834Z,9.33
2022-11-24T15:35:31.571Z,9.68
2022-11-24T15:37:58.497Z,9.26
2022-11-24T15:40:25.072Z,8.80
2022-11-24T15:42:54.288Z,8.70
2022-11-24T15:45:23.076Z,8.95
2022-11-24T15:47:49.746Z,9.26
2022-11-24T15:50:17.024Z,9.14
2022-11-24T15:52:44.617Z,9.14
2022-11-24T15:55:20.331Z,9.09
2022-11-24T15:57:47.539Z,8.57
2022-11-24T16:00:16.703Z,8.17
2022-11-24T16:02:43.415Z,8.39
2022-11-24T16:05:11.352Z,8.27
2022-11-24T16:07:38.033Z,8.46
2022-11-24T16:10:07.574Z,8.33
2022-11-24T16:12:34.179Z,8.31
2022-11-24T16:15:00.709Z,8.39
2022-11-24T16:17:27.299Z,8.32
2022-11-24T16:20:00.113Z,8.31
2022-11-24T16:22:27.571Z,8.52
2022-11-24T16:24:54.104Z,8.81
2022-11-24T16:27:20.761Z,8.83
2022-11-24T16:29:47.356Z,8.73
2022-11-24T16:32:13.896Z,8.30
2022-11-24T16:34:40.475Z,8.20
2022-11-24T16:37:07.038Z,8.03
2022-11-24T16:39:33.578Z,8.48
2022-11-24T16:42:00.155Z,8.10
2022-11-24T16:44:26.682Z,7.93
2022-11-24T16:46:53.243Z,7.69
2022-11-24T16:49:19.845Z,7.88
2022-11-24T16:51:46.406Z,8.19
2022-11-24T16:54:12.946Z,8.04
2022-11-24T16:56:39.621Z,8.08
2022-11-24T16:59:06.252Z,8.25
2022-11-24T17:01:33.010Z,8.33
2022-11-24T17:04:00.293Z,8.35
2022-11-24T17:06:27.407Z,8.21
2022-11-24T17:08:55.452Z,8.01
2022-11-24T17:11:24.273Z,7.80
2022-11-24T17:13:51.230Z,8.06
2022-11-24T17:16:20.461Z,8.18
2022-11-24T17:18:47.488Z,8.16
2022-11-24T17:21:17.141Z,7.93
2022-11-24T17:23:43.807Z,7.85
2022-11-24T17:26:13.035Z,7.90
2022-11-24T17:28:40.108Z,7.90
2022-11-24T17:31:07.593Z,7.78
2022-11-24T17:33:35.146Z,7.84
2022-11-24T17:36:06.423Z,7.76
2022-11-24T17:38:33.172Z,7.77
2022-11-24T17:40:59.727Z,7.71
2022-11-24T17:43:27.460Z,7.44
2022-11-24T17:45:59.062Z,7.55
2022-11-24T17:48:25.743Z,7.55
2022-11-24T17:51:10.667Z,7.71
2022-11-24T17:53:37.668Z,7.63
2022-11-24T17:56:05.542Z,7.57
2022-11-24T17:58:37.171Z,7.65
2022-11-24T18:01:06.839Z,7.55
2022-11-24T18:03:33.739Z,7.44
2022-11-24T18:06:11.388Z,7.37
2022-11-24T18:08:39.773Z,7.44
2022-11-24T18:11:19.931Z,7.43
2022-11-24T18:14:03.116Z,7.37
2022-11-24T18:16:34.292Z,7.33
2022-11-24T18:19:11.346Z,7.20
2022-11-24T18:21:40.303Z,7.28
2022-11-24T18:24:08.774Z,7.18
2022-11-24T18:26:35.405Z,7.35
2022-11-24T18:29:01.954Z,7.30
2022-11-24T18:31:29.460Z,7.20
2022-11-24T18:33:56.643Z,7.03
2022-11-24T18:36:30.058Z,7.35
2022-11-24T18:39:00.955Z,7.28
2022-11-24T18:41:27.618Z,7.42
2022-11-24T18:43:54.296Z,6.92
2022-11-24T18:46:20.943Z,7.18
2022-11-24T18:48:47.691Z,6.71
2022-11-24T18:51:14.456Z,6.95
2022-11-24T18:53:42.686Z,6.52
2022-11-24T18:56:13.591Z,6.85
2022-11-24T18:58:40.245Z,6.89
2022-11-24T19:01:08.922Z,7.12
2022-11-24T19:03:48.749Z,6.60
2022-11-24T19:06:28.545Z,6.64
2022-11-24T19:08:55.775Z,6.76
2022-11-24T19:11:25.075Z,6.44
2022-11-24T19:13:51.697Z,6.97
2022-11-24T19:16:20.142Z,6.93
2022-11-24T19:18:53.680Z,6.88
2022-11-24T19:21:21.900Z,6.91
2022-11-24T19:23:48.951Z,6.70
2022-11-24T19:26:15.540Z,6.81
2022-11-24T19:28:42.081Z,6.83
2022-11-24T19:31:12.597Z,6.80
2022-11-24T19:33:39.953Z,6.98
2022-11-24T19:36:16.058Z,6.93
2022-11-24T19:38:43.532Z,6.79
2022-11-24T19:41:12.414Z,6.78
2022-11-24T19:43:40.045Z,6.56
2022-11-24T19:46:12.671Z,6.35
2022-11-24T19:48:44.778Z,6.50
2022-11-24T19:51:14.396Z,6.43
2022-11-24T19:53:41.654Z,6.40
2022-11-24T19:56:10.976Z,6.57
2022-11-24T19:58:38.305Z,6.70
2022-11-24T20:01:06.993Z,6.69
2022-11-24T20:03:34.214Z,6.80
2022-11-24T20:06:00.814Z,6.73
2022-11-24T20:08:35.282Z,6.80
2022-11-24T20:11:12.533Z,6.81
2022-11-24T20:13:40.898Z,6.77
2022-11-24T20:16:11.415Z,6.61
2022-11-24T20:18:42.124Z,6.71
2022-11-24T20:21:14.118Z,6.75
2022-11-24T20:23:41.363Z,6.71
2022-11-24T20:26:11.518Z,6.67
2022-11-24T20:28:38.354Z,6.60
2022-11-24T20:31:11.005Z,6.53
2022-11-24T20:33:38.222Z,6.69
2022-11-24T20:36:09.988Z,6.59
2022-11-24T20:38:37.826Z,6.44
2022-11-24T20:41:09.256Z,6.55
2022-11-24T20:43:36.947Z,6.45
2022-11-24T20:46:15.434Z,6.49
2022-11-24T20:48:42.481Z,6.31
2022-11-24T20:51:12.546Z,6.39
2022-11-24T20:53:39.542Z,6.41
2022-11-24T20:56:10.029Z,6.50
2022-11-24T20:58:37.589Z,6.55
2022-11-24T21:01:10.887Z,6.51
2022-11-24T21:03:42.761Z,6.53
2022-11-24T21:06:12.482Z,6.60
2022-11-24T21:08:41.726Z,6.49
2022-11-24T21:11:11.840Z,6.40
2022-11-24T21:13:40.109Z,6.11
2022-11-24T21:16:15.713Z,6.02
2022-11-24T21:18:43.713Z,5.91
2022-11-24T21:21:10.820Z,5.85
2022-11-24T21:23:37.546Z,6.00
2022-11-24T21:26:09.067Z,5.96
2022-11-24T21:28:38.747Z,5.93
2022-11-24T21:31:07.335Z,6.00
2022-11-24T21:33:34.425Z,5.88
2022-11-24T21:36:02.607Z,5.98
2022-11-24T21:38:29.584Z,5.90
2022-11-24T21:41:00.965Z,5.92
2022-11-24T21:43:29.590Z,5.88
2022-11-24T21:46:04.102Z,5.90
2022-11-24T21:48:31.840Z,5.82
2022-11-24T21:51:00.108Z,5.67
2022-11-24T21:53:29.551Z,5.83
2022-11-24T21:56:00.639Z,5.85
2022-11-24T21:58:28.345Z,5.90
2022-11-24T22:01:00.522Z,5.95
2022-11-24T22:03:27.203Z,5.88
2022-11-24T22:05:54.681Z,5.95
2022-11-24T22:08:22.002Z,6.03
2022-11-24T22:10:48.566Z,5.94
2022-11-24T22:13:15.365Z,5.86
2022-11-24T22:15:41.979Z,6.04
2022-11-24T22:18:08.837Z,6.07
2022-11-24T22:20:35.520Z,5.87
2022-11-24T22:23:02.172Z,6.00
2022-11-24T22:25:28.766Z,5.94
2022-11-24T22:27:55.308Z,5.95
2022-11-24T22:30:22.178Z,5.81
2022-11-24T22:32:48.730Z,5.83
2022-11-24T22:35:15.323Z,5.76
2022-11-24T22:37:41.876Z,5.84
2022-11-24T22:40:08.894Z,5.91
2022-11-24T22:42:35.430Z,5.74
2022-11-24T22:45:01.970Z,5.75
2022-11-24T22:47:28.539Z,5.69
2022-11-24T22:49:55.151Z,5.65
2022-11-24T22:52:21.698Z,5.77
2022-11-24T22:54:48.333Z,5.94
2022-11-24T22:57:14.851Z,5.95
2022-11-24T22:59:41.476Z,5.90
2022-11-24T23:02:08.086Z,6.15
2022-11-24T23:04:34.822Z,6.25
2022-11-24T23:07:01.655Z,6.05
2022-11-24T23:09:29.188Z,5.86
2022-11-24T23:11:55.835Z,5.90
2022-11-24T23:14:22.426Z,5.84
2022-11-24T23:16:49.151Z,5.84
2022-11-24T23:19:15.870Z,5.79
2022-11-24T23:21:42.458Z,5.85
2022-11-24T23:24:10.213Z,5.79
2022-11-24T23:26:40.935Z,5.75
2022-11-24T23:29:08.412Z,5.77
2022-11-24T23:31:35.551Z,5.74
2022-11-24T23:34:03.498Z,5.81
2022-11-24T23:36:31.662Z,5.70
2022-11-24T23:39:16.502Z,5.78
2022-11-24T23:41:43.106Z,5.82
2022-11-24T23:44:09.699Z,5.96
2022-11-24T23:46:36.387Z,5.97
2022-11-24T23:49:03.158Z,6.05
2022-11-24T23:51:31.919Z,6.17
2022-11-24T23:53:59.934Z,6.21
2022-11-24T23:56:32.187Z,6.20
2022-11-24T23:58:59.471Z,6.44
